createdAt,value
2022-12-29T00:00:10.999Z,96439.06
2022-12-29T00:02:41.250Z,96436.19
2022-12-29T00:05:09.261Z,96431.09
2022-12-29T00:07:36.079Z,96427.06
2022-12-29T00:10:03.371Z,96421.38
2022-12-29T00:12:50.070Z,96421.84
2022-12-29T00:15:35.792Z,96401.69
2022-12-29T00:18:02.647Z,96402.84
2022-12-29T00:20:47.817Z,96387.63
2022-12-29T00:23:33.189Z,96387.50
2022-12-29T00:26:23.043Z,96379.84
2022-12-29T00:29:09.935Z,96389.06
2022-12-29T00:31:55.153Z,96383.84
2022-12-29T00:34:40.449Z,96391.44
2022-12-29T00:37:07.201Z,96408.03
2022-12-29T00:39:52.884Z,96416.41
2022-12-29T00:42:38.105Z,96412.44
2022-12-29T00:45:05.446Z,96413.31
2022-12-29T00:47:32.106Z,96404.47
2022-12-29T00:49:58.825Z,96406.72
2022-12-29T00:52:25.488Z,96405.06
2022-12-29T00:54:52.319Z,96405.06
2022-12-29T00:57:19.413Z,96402.41
2022-12-29T00:59:46.346Z,96403.81
2022-12-29T01:02:13.175Z,96397.28
2022-12-29T01:04:40.099Z,96394.84
2022-12-29T01:07:07.061Z,96399.34
2022-12-29T01:09:52.501Z,96397.28
2022-12-29T01:12:39.485Z,96390.34
2022-12-29T01:15:07.927Z,96384.81
2022-12-29T01:17:35.026Z,96377.06
2022-12-29T01:20:03.993Z,96381.06
2022-12-29T01:22:30.672Z,96371.75
2022-12-29T01:24:57.460Z,96373.47
2022-12-29T01:27:24.251Z,96380.06
2022-12-29T01:29:51.001Z,96386.63
2022-12-29T01:32:18.137Z,96379.81
2022-12-29T01:34:45.034Z,96383.09
2022-12-29T01:37:12.147Z,96390.31
2022-12-29T01:39:39.059Z,96382.56
2022-12-29T01:42:05.950Z,96392.22
2022-12-29T01:44:49.608Z,96402.59
2022-12-29T01:47:31.574Z,96388.59
2022-12-29T01:50:02.111Z,96387.59
2022-12-29T01:52:33.131Z,96380.84
2022-12-29T01:55:04.483Z,96381.69
2022-12-29T01:57:38.015Z,96379.84
2022-12-29T02:00:14.635Z,96377.56
2022-12-29T02:02:46.227Z,96389.78
2022-12-29T02:05:21.226Z,96386.91
2022-12-29T02:07:49.634Z,96393.63
2022-12-29T02:10:20.810Z,96395.22
2022-12-29T02:12:48.136Z,96392.94
2022-12-29T02:15:15.773Z,96396.84
2022-12-29T02:18:05.875Z,96396.41
2022-12-29T02:20:44.805Z,96400.31
2022-12-29T02:23:36.015Z,96407.25
2022-12-29T02:26:29.083Z,96403.13
2022-12-29T02:29:19.875Z,96401.06
2022-12-29T02:32:07.164Z,96412.69
2022-12-29T02:35:13.112Z,96410.03
2022-12-29T02:37:46.080Z,96419.13
2022-12-29T02:40:25.014Z,96424.56
2022-12-29T02:43:01.222Z,96424.44
2022-12-29T02:45:37.932Z,96427.34
2022-12-29T02:48:13.639Z,96434.44
2022-12-29T02:51:02.961Z,96436.34
2022-12-29T02:53:51.584Z,96445.44
2022-12-29T02:56:19.645Z,96447.91
2022-12-29T02:58:47.017Z,96449.09
2022-12-29T03:02:06.398Z,96443.44
2022-12-29T03:04:38.076Z,96447.03
2022-12-29T03:07:15.820Z,96445.66
2022-12-29T03:10:05.232Z,96456.69
2022-12-29T03:12:59.185Z,96458.34
2022-12-29T03:15:52.459Z,96463.91
2022-12-29T03:18:44.411Z,96478.22
2022-12-29T03:21:13.839Z,96486.38
2022-12-29T03:23:48.596Z,96493.97
2022-12-29T03:26:19.722Z,96495.16
2022-12-29T03:28:58.468Z,96499.47
2022-12-29T03:31:29.705Z,96511.91
2022-12-29T03:33:59.136Z,96516.81
2022-12-29T03:36:34.836Z,96517.28
2022-12-29T03:39:12.794Z,96528.88
2022-12-29T03:41:43.095Z,96525.84
2022-12-29T03:44:11.377Z,96543.63
2022-12-29T03:46:38.181Z,96538.97
2022-12-29T03:49:05.032Z,96539.16
2022-12-29T03:51:31.749Z,96536.31
2022-12-29T03:53:58.631Z,96537.78
2022-12-29T03:56:25.445Z,96548.78
2022-12-29T03:58:53.351Z,96546.97
2022-12-29T04:01:28.272Z,96551.25
2022-12-29T04:03:55.322Z,96559.81
2022-12-29T04:06:22.068Z,96564.72
2022-12-29T04:08:54.054Z,96572.84
2022-12-29T04:11:22.044Z,96578.78
2022-12-29T04:13:50.048Z,96574.50
2022-12-29T04:16:22.125Z,96582.44
2022-12-29T04:18:48.935Z,96591.63
2022-12-29T04:21:16.210Z,96606.09
2022-12-29T04:23:45.210Z,96607.09
2022-12-29T04:26:13.235Z,96618.91
2022-12-29T04:29:00.192Z,96622.38
2022-12-29T04:31:43.904Z,96637.44
2022-12-29T04:34:11.067Z,96635.38
2022-12-29T04:36:39.795Z,96640.91
2022-12-29T04:39:07.491Z,96637.44
2022-12-29T04:41:35.661Z,96644.56
2022-12-29T04:44:02.940Z,96623.59
2022-12-29T04:46:32.493Z,96620.56
2022-12-29T04:49:08.894Z,96624.41
2022-12-29T04:51:58.840Z,96624.22
2022-12-29T04:54:26.065Z,96636.84
2022-12-29T04:57:05.132Z,96635.81
2022-12-29T04:59:32.013Z,96651.91
2022-12-29T05:02:00.335Z,96663.31
2022-12-29T05:04:27.436Z,96670.81
2022-12-29T05:06:54.207Z,96682.81
2022-12-29T05:09:21.090Z,96682.44
2022-12-29T05:11:47.825Z,96701.75
2022-12-29T05:14:14.845Z,96699.09
2022-12-29T05:16:42.519Z,96701.75
2022-12-29T05:19:09.762Z,96713.56
2022-12-29T05:21:36.455Z,96716.59
2022-12-29T05:24:03.316Z,96718.41
2022-12-29T05:26:30.174Z,96724.31
2022-12-29T05:29:15.526Z,96725.13
2022-12-29T05:31:42.710Z,96732.06
2022-12-29T05:34:12.549Z,96740.81
2022-12-29T05:36:40.640Z,96745.50
2022-12-29T05:39:09.642Z,96755.47
2022-12-29T05:41:37.421Z,96776.44
2022-12-29T05:44:16.181Z,96772.75
2022-12-29T05:47:11.312Z,96786.81
2022-12-29T05:50:01.721Z,96791.06
2022-12-29T05:52:47.358Z,96819.16
2022-12-29T05:55:14.247Z,96813.25
2022-12-29T05:57:42.750Z,96829.75
2022-12-29T06:00:16.000Z,96839.72
2022-12-29T06:02:45.178Z,96848.28
2022-12-29T06:05:11.941Z,96856.59
2022-12-29T06:07:40.034Z,96858.84
2022-12-29T06:10:07.335Z,96861.72
2022-12-29T06:12:42.442Z,96865.34
2022-12-29T06:15:09.867Z,96875.75
2022-12-29T06:17:39.206Z,96877.38
2022-12-29T06:20:06.715Z,96892.00
2022-12-29T06:22:33.507Z,96907.09
2022-12-29T06:25:05.270Z,96913.72
2022-12-29T06:27:33.815Z,96926.31
2022-12-29T06:30:00.840Z,96935.50
2022-12-29T06:32:28.366Z,96954.69
2022-12-29T06:35:03.182Z,96958.81
2022-12-29T06:37:30.203Z,96966.94
2022-12-29T06:39:56.944Z,96967.75
2022-12-29T06:42:29.156Z,96976.28
2022-12-29T06:45:10.579Z,96981.72
2022-12-29T06:47:38.335Z,96982.16
2022-12-29T06:50:05.545Z,96983.75
2022-12-29T06:52:32.261Z,96995.97
2022-12-29T06:54:59.941Z,96990.06
2022-12-29T06:57:27.577Z,96992.84
2022-12-29T06:59:56.721Z,96989.22
2022-12-29T07:02:26.300Z,96999.16
2022-12-29T07:04:53.966Z,96980.59
2022-12-29T07:07:21.729Z,96981.03
2022-12-29T07:09:48.772Z,96978.63
2022-12-29T07:12:15.590Z,96980.25
2022-12-29T07:14:43.571Z,96974.97
2022-12-29T07:17:10.673Z,96972.94
2022-12-29T07:19:37.572Z,96964.41
2022-12-29T07:22:04.347Z,96979.47
2022-12-29T07:24:31.050Z,96986.16
2022-12-29T07:26:57.880Z,96992.44
2022-12-29T07:29:25.267Z,97001.25
2022-12-29T07:31:52.261Z,97009.00
2022-12-29T07:34:19.133Z,97008.38
2022-12-29T07:36:45.759Z,97021.13
2022-12-29T07:39:12.722Z,97037.63
2022-12-29T07:41:39.388Z,97053.28
2022-12-29T07:44:11.199Z,97055.50
2022-12-29T07:47:02.230Z,97072.16
2022-12-29T07:49:29.198Z,97076.34
2022-12-29T07:51:56.010Z,97080.38
2022-12-29T07:54:24.066Z,97083.19
2022-12-29T07:56:51.245Z,97089.88
2022-12-29T07:59:18.341Z,97099.19
2022-12-29T08:01:45.247Z,97105.47
2022-12-29T08:04:12.103Z,97103.56
2022-12-29T08:06:39.337Z,97100.97
2022-12-29T08:09:13.624Z,97108.84
2022-12-29T08:11:45.720Z,97111.94
2022-12-29T08:14:12.547Z,97115.84
2022-12-29T08:16:39.326Z,97121.78
2022-12-29T08:19:06.123Z,97130.69
2022-12-29T08:21:33.251Z,97130.06
2022-12-29T08:24:00.212Z,97138.38
2022-12-29T08:26:27.163Z,97145.50
2022-12-29T08:28:55.493Z,97154.81
2022-12-29T08:31:22.876Z,97148.50
2022-12-29T08:33:49.886Z,97146.25
2022-12-29T08:36:16.967Z,97151.16
2022-12-29T08:38:43.646Z,97150.56
2022-12-29T08:41:10.418Z,97157.28
2022-12-29T08:43:37.082Z,97160.09
2022-12-29T08:46:04.028Z,97169.56
2022-12-29T08:48:30.729Z,97170.84
2022-12-29T08:50:57.428Z,97181.59
2022-12-29T08:53:24.809Z,97193.19
2022-12-29T08:56:04.181Z,97188.81
2022-12-29T08:58:39.546Z,97201.59
2022-12-29T09:01:07.589Z,97198.97
2022-12-29T09:06:21.995Z,97212.81
2022-12-29T09:08:48.772Z,97217.25
2022-12-29T09:11:20.463Z,97214.25
2022-12-29T09:13:47.909Z,97219.16
2022-12-29T09:16:16.224Z,97222.91
2022-12-29T09:18:43.925Z,97222.91
2022-12-29T09:21:11.695Z,97234.09
2022-12-29T09:23:39.096Z,97234.56
2022-12-29T09:26:07.526Z,97237.00
2022-12-29T09:28:35.055Z,97245.84
2022-12-29T09:31:02.063Z,97247.47
2022-12-29T09:33:28.930Z,97247.13
2022-12-29T09:35:59.426Z,97253.59
2022-12-29T09:38:27.721Z,97259.28
2022-12-29T09:41:31.654Z,97262.84
2022-12-29T09:44:14.280Z,97259.84
2022-12-29T09:46:50.912Z,97266.19
2022-12-29T09:49:27.565Z,97267.91
2022-12-29T09:51:58.404Z,97280.00
2022-12-29T09:54:43.400Z,97280.63
2022-12-29T09:57:20.776Z,97281.53
2022-12-29T09:59:50.460Z,97290.53
2022-12-29T10:02:51.808Z,97288.09
2022-12-29T10:05:44.198Z,97304.53
2022-12-29T10:08:29.313Z,97304.50
2022-12-29T10:11:00.249Z,97305.00
2022-12-29T10:13:44.097Z,97320.34
2022-12-29T10:16:18.580Z,97328.16
2022-12-29T10:19:10.413Z,97333.63
2022-12-29T10:22:00.624Z,97337.81
2022-12-29T10:24:30.474Z,97338.16
2022-12-29T10:26:59.639Z,97342.94
2022-12-29T10:29:34.935Z,97343.09
2022-12-29T10:32:06.945Z,97350.69
2022-12-29T10:34:45.958Z,97359.25
2022-12-29T10:37:18.326Z,97358.75
2022-12-29T10:39:50.438Z,97365.84
2022-12-29T10:42:28.602Z,97362.66
2022-12-29T10:44:57.074Z,97365.47
2022-12-29T10:47:34.099Z,97363.66
2022-12-29T10:50:01.663Z,97361.19
2022-12-29T10:52:30.021Z,97361.41
2022-12-29T10:55:23.961Z,97367.13
2022-12-29T10:57:50.660Z,97370.00
2022-12-29T11:00:23.920Z,97369.09
2022-12-29T11:03:10.081Z,97366.03
2022-12-29T11:05:55.206Z,97375.66
2022-12-29T11:08:27.271Z,97378.75
2022-12-29T11:11:22.798Z,97376.63
2022-12-29T11:13:52.594Z,97377.44
2022-12-29T11:16:35.368Z,97387.03
2022-12-29T11:19:05.658Z,97391.13
2022-12-29T11:21:34.424Z,97390.78
2022-12-29T11:24:06.569Z,97388.88
2022-12-29T11:26:35.233Z,97385.19
2022-12-29T11:29:11.343Z,97393.00
2022-12-29T11:31:59.916Z,97397.00
2022-12-29T11:34:26.886Z,97399.97
2022-12-29T11:37:01.607Z,97398.13
2022-12-29T11:39:43.994Z,97398.13
2022-12-29T11:42:17.773Z,97395.69
2022-12-29T11:44:48.323Z,97388.69
2022-12-29T11:47:29.322Z,97394.00
2022-12-29T11:50:01.406Z,97402.97
2022-12-29T11:52:34.265Z,97395.38
2022-12-29T11:55:02.686Z,97395.97
2022-12-29T11:57:30.022Z,97397.41
2022-12-29T12:00:01.141Z,97407.38
2022-12-29T12:02:43.701Z,97405.00
2022-12-29T12:05:32.123Z,97402.06
2022-12-29T12:08:12.285Z,97410.69
2022-12-29T12:10:47.736Z,97416.75
2022-12-29T12:13:28.177Z,97416.75
2022-12-29T12:16:16.351Z,97411.91
2022-12-29T12:18:48.418Z,97415.19
2022-12-29T12:21:23.216Z,97423.59
2022-12-29T12:24:16.145Z,97421.94
2022-12-29T12:27:03.480Z,97414.03
2022-12-29T12:29:39.540Z,97421.34
2022-12-29T12:32:24.490Z,97427.34
2022-12-29T12:34:51.870Z,97425.13
2022-12-29T12:37:52.584Z,97427.34
2022-12-29T12:40:52.901Z,97425.91
2022-12-29T12:43:38.248Z,97435.25
2022-12-29T12:46:08.398Z,97428.19
2022-12-29T12:48:37.812Z,97424.50
2022-12-29T12:51:23.020Z,97424.63
2022-12-29T12:54:03.269Z,97425.91
2022-12-29T12:57:05.392Z,97432.81
2022-12-29T12:59:51.660Z,97432.88
2022-12-29T13:02:33.319Z,97429.19
2022-12-29T13:05:09.172Z,97431.78
2022-12-29T13:08:02.603Z,97431.59
2022-12-29T13:10:42.364Z,97431.72
2022-12-29T13:13:29.489Z,97425.97
2022-12-29T13:16:14.304Z,97434.03
2022-12-29T13:18:59.876Z,97429.59
2022-12-29T13:22:07.028Z,97438.38
2022-12-29T13:25:08.599Z,97435.09
2022-12-29T13:27:54.041Z,97430.06
2022-12-29T13:30:24.304Z,97425.38
2022-12-29T13:32:56.605Z,97425.78
2022-12-29T13:35:35.143Z,97425.78
2022-12-29T13:38:08.975Z,97421.47
2022-12-29T13:40:40.161Z,97423.19
2022-12-29T13:43:08.170Z,97430.44
2022-12-29T13:45:36.565Z,97436.25
2022-12-29T13:48:23.672Z,97449.03
2022-12-29T13:50:58.301Z,97447.84
2022-12-29T13:53:48.080Z,97447.03
2022-12-29T13:56:21.507Z,97448.66
2022-12-29T13:59:01.688Z,97457.69
2022-12-29T14:01:43.358Z,97457.88
2022-12-29T14:04:16.237Z,97448.75
2022-12-29T14:06:45.125Z,97454.66
2022-12-29T14:09:49.433Z,97457.13
2022-12-29T14:12:43.295Z,97460.22
2022-12-29T14:15:12.839Z,97454.28
2022-12-29T14:18:00.836Z,97459.59
2022-12-29T14:20:27.573Z,97447.44
2022-12-29T14:23:40.951Z,97459.84
2022-12-29T14:26:07.633Z,97450.44
2022-12-29T14:28:41.706Z,97454.53
2022-12-29T14:31:20.336Z,97454.34
2022-12-29T14:34:09.763Z,97460.59
2022-12-29T14:36:40.557Z,97459.53
2022-12-29T14:39:38.160Z,97463.91
2022-12-29T14:42:13.448Z,97464.13
2022-12-29T14:45:03.784Z,97466.38
2022-12-29T14:47:42.380Z,97471.03
2022-12-29T14:50:12.132Z,97473.06
2022-12-29T14:53:02.504Z,97482.00
2022-12-29T14:55:35.762Z,97478.91
2022-12-29T14:58:11.962Z,97485.75
2022-12-29T15:00:41.186Z,97492.16
2022-12-29T15:03:26.205Z,97488.44
2022-12-29T15:05:54.552Z,97499.22
2022-12-29T15:08:27.940Z,97496.13
2022-12-29T15:11:00.471Z,97496.03
2022-12-29T15:13:36.845Z,97494.50
2022-12-29T15:16:05.014Z,97501.06
2022-12-29T15:18:34.051Z,97508.34
2022-12-29T15:21:06.059Z,97510.06
2022-12-29T15:23:35.956Z,97508.78
2022-12-29T15:26:04.925Z,97519.09
2022-12-29T15:28:53.034Z,97518.63
2022-12-29T15:31:29.444Z,97526.41
2022-12-29T15:34:11.847Z,97532.25
2022-12-29T15:36:39.439Z,97532.41
2022-12-29T15:39:28.013Z,97544.34
2022-12-29T15:42:01.079Z,97549.38
2022-12-29T15:44:54.162Z,97550.00
2022-12-29T15:47:31.025Z,97555.47
2022-12-29T15:50:06.456Z,97560.59
2022-12-29T15:52:34.797Z,97563.03
2022-12-29T15:55:03.100Z,97560.75
2022-12-29T15:57:36.854Z,97553.00
2022-12-29T16:00:21.929Z,97568.06
2022-12-29T16:02:49.868Z,97568.31
2022-12-29T16:05:18.904Z,97577.66
2022-12-29T16:08:00.445Z,97574.72
2022-12-29T16:10:47.309Z,97575.38
2022-12-29T16:13:25.466Z,97587.59
2022-12-29T16:16:00.264Z,97581.13
2022-12-29T16:18:35.866Z,97600.03
2022-12-29T16:21:06.164Z,97605.97
2022-12-29T16:23:33.770Z,97615.19
2022-12-29T16:26:00.974Z,97623.78
2022-12-29T16:28:37.242Z,97628.09
2022-12-29T16:31:07.374Z,97630.72
2022-12-29T16:33:55.354Z,97634.28
2022-12-29T16:36:26.652Z,97636.28
2022-12-29T16:39:26.803Z,97635.91
2022-12-29T16:41:55.079Z,97637.91
2022-12-29T16:44:30.663Z,97650.97
2022-12-29T16:47:01.411Z,97657.09
2022-12-29T16:49:28.934Z,97662.38
2022-12-29T16:51:56.574Z,97671.59
2022-12-29T16:54:28.106Z,97669.91
2022-12-29T16:56:56.040Z,97683.56
2022-12-29T16:59:31.565Z,97684.31
2022-12-29T17:02:00.513Z,97692.13
2022-12-29T17:04:27.358Z,97699.38
2022-12-29T17:06:54.077Z,97715.19
2022-12-29T17:09:22.054Z,97740.13
2022-12-29T17:12:01.561Z,97739.03
2022-12-29T17:14:41.238Z,97766.13
2022-12-29T17:17:16.281Z,97759.31
2022-12-29T17:19:47.467Z,97758.72
2022-12-29T17:22:21.942Z,97784.47
2022-12-29T17:24:48.861Z,97798.59
2022-12-29T17:27:24.826Z,97795.13
2022-12-29T17:29:53.637Z,97786.94
2022-12-29T17:32:20.363Z,97788.97
2022-12-29T17:34:47.068Z,97791.31
2022-12-29T17:37:30.418Z,97802.72
2022-12-29T17:39:57.148Z,97803.53
2022-12-29T17:42:23.851Z,97814.16
2022-12-29T17:44:50.738Z,97825.88
2022-12-29T17:47:17.545Z,97835.19
2022-12-29T17:49:47.621Z,97847.75
2022-12-29T17:52:15.992Z,97839.47
2022-12-29T17:54:53.507Z,97843.28
2022-12-29T17:57:21.435Z,97842.31
2022-12-29T17:59:48.385Z,97849.25
2022-12-29T18:02:25.735Z,97858.19
2022-12-29T18:04:53.983Z,97870.56
2022-12-29T18:07:23.032Z,97875.34
2022-12-29T18:09:49.750Z,97887.91
2022-12-29T18:12:39.626Z,97914.84
2022-12-29T18:15:12.507Z,97913.50
2022-12-29T18:17:39.228Z,97922.91
2022-12-29T18:20:06.144Z,97926.06
2022-12-29T18:22:32.996Z,97949.31
2022-12-29T18:24:59.705Z,97957.41
2022-12-29T18:27:26.519Z,97974.56
2022-12-29T18:29:53.173Z,97989.09
2022-12-29T18:32:21.274Z,97996.69
2022-12-29T18:34:48.909Z,97979.84
2022-12-29T18:37:15.843Z,97965.34
2022-12-29T18:39:43.088Z,97967.78
2022-12-29T18:42:15.899Z,97978.03
2022-12-29T18:44:42.638Z,97979.19
2022-12-29T18:47:09.361Z,97977.88
2022-12-29T18:49:36.059Z,97985.81
2022-12-29T18:52:02.872Z,98015.97
2022-12-29T18:54:32.389Z,98041.72
2022-12-29T18:56:59.305Z,98049.59
2022-12-29T18:59:26.189Z,98067.03
2022-12-29T19:01:53.050Z,98083.22
2022-12-29T19:04:19.943Z,98116.91
2022-12-29T19:06:46.631Z,98118.66
2022-12-29T19:09:14.012Z,98119.34
2022-12-29T19:11:40.852Z,98119.50
2022-12-29T19:14:16.439Z,98118.78
2022-12-29T19:16:43.218Z,98122.56
2022-12-29T19:19:14.666Z,98127.38
2022-12-29T19:21:41.391Z,98120.44
2022-12-29T19:24:08.122Z,98123.22
2022-12-29T19:26:37.305Z,98122.91
2022-12-29T19:29:05.156Z,98123.28
2022-12-29T19:31:31.942Z,98123.78
2022-12-29T19:33:58.844Z,98124.44
2022-12-29T19:36:25.499Z,98126.97
2022-12-29T19:38:52.329Z,98132.94
2022-12-29T19:41:19.005Z,98145.13
2022-12-29T19:43:46.922Z,98143.50
2022-12-29T19:46:17.195Z,98145.13
2022-12-29T19:48:44.234Z,98157.03
2022-12-29T19:51:13.776Z,98143.44
2022-12-29T19:53:40.511Z,98143.78
2022-12-29T19:56:09.090Z,98142.25
2022-12-29T19:58:40.501Z,98156.25
2022-12-29T20:01:19.931Z,98163.38
2022-12-29T20:03:46.832Z,98162.69
2022-12-29T20:06:14.378Z,98169.44
2022-12-29T20:08:41.456Z,98178.78
2022-12-29T20:11:16.425Z,98191.28
2022-12-29T20:13:43.878Z,98192.56
2022-12-29T20:16:14.681Z,98196.03
2022-12-29T20:18:41.805Z,98207.59
2022-12-29T20:21:16.443Z,98212.41
2022-12-29T20:23:44.838Z,98215.72
2022-12-29T20:26:24.585Z,98212.06
2022-12-29T20:28:51.660Z,98206.81
2022-12-29T20:31:24.836Z,98214.03
2022-12-29T20:33:51.670Z,98222.94
2022-12-29T20:36:25.133Z,98230.50
2022-12-29T20:38:53.552Z,98226.50
2022-12-29T20:41:21.218Z,98224.06
2022-12-29T20:43:47.951Z,98219.34
2022-12-29T20:46:19.514Z,98226.13
2022-12-29T20:48:47.887Z,98226.66
2022-12-29T20:51:14.628Z,98228.16
2022-12-29T20:53:41.436Z,98224.09
2022-12-29T20:56:13.015Z,98224.91
2022-12-29T20:59:00.189Z,98228.22
2022-12-29T21:01:27.162Z,98239.44
2022-12-29T21:03:54.207Z,98245.47
2022-12-29T21:06:21.670Z,98245.25
2022-12-29T21:08:54.574Z,98256.41
2022-12-29T21:11:22.595Z,98257.75
2022-12-29T21:13:49.984Z,98259.94
2022-12-29T21:16:18.944Z,98260.63
2022-12-29T21:18:45.836Z,98269.66
2022-12-29T21:21:20.136Z,98276.13
2022-12-29T21:23:46.940Z,98276.75
2022-12-29T21:26:16.674Z,98272.16
2022-12-29T21:28:44.353Z,98266.94
2022-12-29T21:31:25.015Z,98273.06
2022-12-29T21:33:53.093Z,98279.63
2022-12-29T21:36:20.149Z,98280.66
2022-12-29T21:38:47.307Z,98291.22
2022-12-29T21:41:16.081Z,98304.41
2022-12-29T21:44:08.504Z,98299.94
2022-12-29T21:46:38.048Z,98293.41
2022-12-29T21:49:06.047Z,98293.75
2022-12-29T21:51:51.193Z,98309.38
2022-12-29T21:54:43.359Z,98311.75
2022-12-29T21:57:15.470Z,98311.38
2022-12-29T22:00:04.459Z,98307.38
2022-12-29T22:02:54.276Z,98316.00
2022-12-29T22:05:39.907Z,98322.81
2022-12-29T22:08:25.244Z,98326.28
2022-12-29T22:11:10.420Z,98323.09
2022-12-29T22:13:39.724Z,98317.88
2022-12-29T22:16:08.628Z,98312.06
2022-12-29T22:18:35.495Z,98305.53
2022-12-29T22:21:10.333Z,98305.34
2022-12-29T22:23:38.900Z,98296.16
2022-12-29T22:26:08.489Z,98302.13
2022-12-29T22:28:40.683Z,98291.72
2022-12-29T22:31:21.544Z,98287.22
2022-12-29T22:33:48.378Z,98280.81
2022-12-29T22:36:15.030Z,98288.81
2022-12-29T22:38:41.792Z,98298.25
2022-12-29T22:41:08.456Z,98311.09
2022-12-29T22:43:35.272Z,98315.69
2022-12-29T22:46:07.713Z,98324.59
2022-12-29T22:48:37.644Z,98329.03
2022-12-29T22:51:04.980Z,98335.81
2022-12-29T22:53:31.885Z,98344.13
2022-12-29T22:56:06.706Z,98356.22
2022-12-29T22:58:33.863Z,98349.88
2022-12-29T23:01:01.474Z,98350.47
2022-12-29T23:03:28.350Z,98349.09
2022-12-29T23:06:02.887Z,98351.03
2022-12-29T23:08:36.149Z,98348.00
2022-12-29T23:11:05.999Z,98345.78
2022-12-29T23:13:32.975Z,98354.69
2022-12-29T23:16:00.328Z,98355.94
2022-12-29T23:18:27.384Z,98354.44
2022-12-29T23:20:54.133Z,98355.00
2022-12-29T23:23:48.107Z,98348.06
2022-12-29T23:26:17.294Z,98353.63
2022-12-29T23:28:44.097Z,98357.22
2022-12-29T23:31:11.119Z,98344.47
2022-12-29T23:33:38.066Z,98351.09
2022-12-29T23:36:05.368Z,98357.88
2022-12-29T23:38:32.069Z,98354.81
2022-12-29T23:40:58.982Z,98346.09
2022-12-29T23:43:26.137Z,98348.59
2022-12-29T23:45:52.797Z,98344.41
2022-12-29T23:48:19.843Z,98347.72
2022-12-29T23:50:46.752Z,98344.97
2022-12-29T23:53:13.649Z,98349.41
2022-12-29T23:55:44.312Z,98365.75
2022-12-29T23:58:11.347Z,98357.31
